createdAt,value
2022-10-12T00:01:03.828Z,101670.81
2022-10-12T00:03:30.352Z,101672.47
2022-10-12T00:06:06.246Z,101668.84
2022-10-12T00:08:35.121Z,101679.38
2022-10-12T00:11:02.051Z,101673.06
2022-10-12T00:13:28.816Z,101673.00
2022-10-12T00:15:55.664Z,101675.50
2022-10-12T00:18:22.298Z,101675.50
2022-10-12T00:20:48.837Z,101677.16
2022-10-12T00:23:15.407Z,101671.75
2022-10-12T00:25:42.398Z,101676.09
2022-10-12T00:28:09.027Z,101674.22
2022-10-12T00:30:40.119Z,101673.25
2022-10-12T00:33:06.719Z,101669.69
2022-10-12T00:35:33.179Z,101673.09
2022-10-12T00:37:59.727Z,101672.31
2022-10-12T00:40:26.383Z,101679.22
2022-10-12T00:42:53.107Z,101678.28
2022-10-12T00:45:19.700Z,101677.31
2022-10-12T00:47:59.918Z,101684.28
2022-10-12T00:50:35.287Z,101674.50
2022-10-12T00:53:07.887Z,101681.41
2022-10-12T00:55:40.659Z,101683.94
2022-10-12T00:58:08.388Z,101682.13
2022-10-12T01:00:37.103Z,101687.31
2022-10-12T01:03:05.691Z,101687.25
2022-10-12T01:05:33.271Z,101681.00
2022-10-12T01:08:00.698Z,101686.19
2022-10-12T01:10:27.862Z,101679.13
2022-10-12T01:12:56.156Z,101688.66
2022-10-12T01:15:27.268Z,101684.25
2022-10-12T01:18:14.873Z,101682.34
2022-10-12T01:21:09.316Z,101675.31
2022-10-12T01:23:55.045Z,101683.94
2022-10-12T01:26:40.583Z,101681.25
2022-10-12T01:29:25.685Z,101680.25
2022-10-12T01:32:01.770Z,101684.53
2022-10-12T01:34:40.130Z,101687.97
2022-10-12T01:37:17.658Z,101678.19
2022-10-12T01:39:52.929Z,101674.59
2022-10-12T01:42:37.252Z,101677.22
2022-10-12T01:45:06.821Z,101659.69
2022-10-12T01:47:36.003Z,101657.78
2022-10-12T01:50:04.548Z,101667.41
2022-10-12T01:52:39.668Z,101659.38
2022-10-12T01:55:29.805Z,101661.84
2022-10-12T01:58:09.183Z,101653.84
2022-10-12T02:00:46.330Z,101659.81
2022-10-12T02:03:35.988Z,101652.69
2022-10-12T02:06:12.021Z,101656.13
2022-10-12T02:08:50.891Z,101656.88
2022-10-12T02:11:20.039Z,101656.00
2022-10-12T02:14:13.036Z,101654.84
2022-10-12T02:16:45.934Z,101652.22
2022-10-12T02:19:17.776Z,101640.78
2022-10-12T02:21:46.496Z,101637.19
2022-10-12T02:24:15.730Z,101636.19
2022-10-12T02:26:44.164Z,101647.59
2022-10-12T02:29:16.077Z,101639.63
2022-10-12T02:31:48.316Z,101638.63
2022-10-12T02:34:18.957Z,101635.13
2022-10-12T02:37:01.269Z,101634.97
2022-10-12T02:39:37.791Z,101631.47
2022-10-12T02:42:10.327Z,101631.41
2022-10-12T02:44:40.350Z,101623.41
2022-10-12T02:47:09.712Z,101619.00
2022-10-12T02:49:36.797Z,101619.81
2022-10-12T02:52:05.511Z,101623.28
2022-10-12T02:54:32.123Z,101624.91
2022-10-12T02:56:58.686Z,101625.69
2022-10-12T02:59:25.343Z,101613.38
2022-10-12T03:01:51.833Z,101620.25
2022-10-12T03:04:18.391Z,101613.16
2022-10-12T03:06:45.085Z,101618.31
2022-10-12T03:09:11.588Z,101615.59
2022-10-12T03:11:38.141Z,101619.88
2022-10-12T03:14:04.691Z,101618.91
2022-10-12T03:16:31.500Z,101618.75
2022-10-12T03:18:58.509Z,101623.97
2022-10-12T03:21:25.034Z,101620.38
2022-10-12T03:23:51.720Z,101620.31
2022-10-12T03:26:18.271Z,101621.88
2022-10-12T03:28:45.137Z,101620.09
2022-10-12T03:31:13.079Z,101620.09
2022-10-12T03:33:39.603Z,101625.22
2022-10-12T03:36:06.546Z,101616.41
2022-10-12T03:38:33.070Z,101620.75
2022-10-12T03:41:04.197Z,101609.28
2022-10-12T03:43:33.944Z,101611.91
2022-10-12T03:46:00.477Z,101607.50
2022-10-12T03:48:27.100Z,101609.19
2022-10-12T03:50:53.715Z,101606.56
2022-10-12T03:53:20.426Z,101600.44
2022-10-12T03:55:46.977Z,101602.06
2022-10-12T03:58:13.705Z,101602.91
2022-10-12T04:00:40.380Z,101605.53
2022-10-12T04:03:06.992Z,101605.34
2022-10-12T04:05:33.773Z,101605.28
2022-10-12T04:08:00.321Z,101610.44
2022-10-12T04:10:27.073Z,101600.69
2022-10-12T04:12:53.717Z,101605.03
2022-10-12T04:15:20.227Z,101598.91
2022-10-12T04:17:46.894Z,101593.56
2022-10-12T04:20:13.462Z,101598.75
2022-10-12T04:22:40.130Z,101595.16
2022-10-12T04:25:06.916Z,101596.06
2022-10-12T04:27:33.468Z,101599.47
2022-10-12T04:29:59.975Z,101594.16
2022-10-12T04:32:27.069Z,101598.50
2022-10-12T04:34:53.590Z,101599.25
2022-10-12T04:37:20.064Z,101608.75
2022-10-12T04:39:46.759Z,101601.69
2022-10-12T04:42:13.523Z,101601.63
2022-10-12T04:44:40.048Z,101596.31
2022-10-12T04:47:06.802Z,101601.53
2022-10-12T04:49:33.322Z,101609.31
2022-10-12T04:51:59.850Z,101599.56
2022-10-12T04:54:26.544Z,101603.03
2022-10-12T04:56:53.173Z,101603.03
2022-10-12T04:59:19.673Z,101600.41
2022-10-12T05:01:46.264Z,101599.44
2022-10-12T05:04:12.831Z,101594.09
2022-10-12T05:06:39.383Z,101599.28
2022-10-12T05:09:06.154Z,101596.53
2022-10-12T05:11:32.721Z,101599.16
2022-10-12T05:13:59.248Z,101596.53
2022-10-12T05:16:25.790Z,101591.31
2022-10-12T05:18:52.445Z,101601.78
2022-10-12T05:21:19.699Z,101594.84
2022-10-12T05:23:53.030Z,101589.66
2022-10-12T05:26:19.658Z,101587.13
2022-10-12T05:28:46.518Z,101585.41
2022-10-12T05:31:13.267Z,101582.72
2022-10-12T05:33:39.999Z,101578.38
2022-10-12T05:36:06.883Z,101583.63
2022-10-12T05:38:33.526Z,101582.78
2022-10-12T05:41:00.907Z,101583.78
2022-10-12T05:43:28.109Z,101581.16
2022-10-12T05:45:54.726Z,101588.19
2022-10-12T05:48:21.322Z,101586.53
2022-10-12T05:50:47.846Z,101587.53
2022-10-12T05:53:14.399Z,101584.19
2022-10-12T05:55:40.979Z,101592.19
2022-10-12T05:58:07.596Z,101579.22
2022-10-12T06:00:34.142Z,101583.75
2022-10-12T06:03:03.609Z,101588.34
2022-10-12T06:05:30.202Z,101584.16
2022-10-12T06:07:56.755Z,101575.56
2022-10-12T06:10:27.649Z,101582.72
2022-10-12T06:12:56.373Z,101581.28
2022-10-12T06:15:23.033Z,101577.09
2022-10-12T06:17:49.610Z,101580.91
2022-10-12T06:20:16.218Z,101575.88
2022-10-12T06:22:42.778Z,101581.38
2022-10-12T06:25:09.716Z,101585.78
2022-10-12T06:27:36.229Z,101590.22
2022-10-12T06:30:03.303Z,101581.44
2022-10-12T06:32:29.863Z,101575.28
2022-10-12T06:34:56.632Z,101570.94
2022-10-12T06:37:47.964Z,101579.06
2022-10-12T06:40:10.342Z,101577.50
2022-10-12T06:42:37.197Z,101575.06
2022-10-12T06:45:06.188Z,101578.75
2022-10-12T06:47:32.912Z,101570.22
2022-10-12T06:49:59.422Z,101579.28
2022-10-12T06:52:25.980Z,101580.44
2022-10-12T06:54:52.572Z,101584.16
2022-10-12T06:57:19.090Z,101582.66
2022-10-12T06:59:45.598Z,101581.09
2022-10-12T07:02:12.118Z,101584.00
2022-10-12T07:04:38.716Z,101583.41
2022-10-12T07:07:05.270Z,101581.06
2022-10-12T07:09:31.905Z,101584.03
2022-10-12T07:11:58.523Z,101573.81
2022-10-12T07:14:25.104Z,101574.16
2022-10-12T07:16:55.263Z,101581.41
2022-10-12T07:19:22.199Z,101582.69
2022-10-12T07:21:48.808Z,101580.44
2022-10-12T07:24:15.413Z,101581.66
2022-10-12T07:26:42.077Z,101582.91
2022-10-12T07:29:09.271Z,101580.66
2022-10-12T07:31:39.740Z,101578.44
2022-10-12T07:34:06.264Z,101576.16
2022-10-12T07:36:57.428Z,101576.41
2022-10-12T07:39:21.466Z,101576.75
2022-10-12T07:41:48.716Z,101574.53
2022-10-12T07:44:15.476Z,101575.75
2022-10-12T07:46:42.541Z,101571.84
2022-10-12T07:49:11.351Z,101578.38
2022-10-12T07:51:38.272Z,101581.47
2022-10-12T07:54:04.990Z,101589.75
2022-10-12T07:56:31.806Z,101584.88
2022-10-12T07:58:58.966Z,101576.47
2022-10-12T08:01:28.244Z,101573.38
2022-10-12T08:04:00.268Z,101578.94
2022-10-12T08:06:31.539Z,101583.75
2022-10-12T08:08:59.393Z,101579.69
2022-10-12T08:11:25.951Z,101581.88
2022-10-12T08:13:52.518Z,101581.47
2022-10-12T08:16:21.198Z,101582.78
2022-10-12T08:18:48.187Z,101585.81
2022-10-12T08:21:16.837Z,101579.06
2022-10-12T08:23:45.078Z,101574.94
2022-10-12T08:26:12.727Z,101586.59
2022-10-12T08:28:39.370Z,101578.03
2022-10-12T08:31:11.416Z,101581.88
2022-10-12T08:33:38.057Z,101578.59
2022-10-12T08:36:06.571Z,101578.88
2022-10-12T08:38:34.100Z,101573.81
2022-10-12T08:41:11.333Z,101572.34
2022-10-12T08:43:48.750Z,101570.84
2022-10-12T08:46:21.429Z,101567.66
2022-10-12T08:48:55.355Z,101568.81
2022-10-12T08:51:26.074Z,101568.22
2022-10-12T08:53:58.506Z,101573.75
2022-10-12T08:56:25.355Z,101573.06
2022-10-12T08:58:53.218Z,101568.03
2022-10-12T09:01:37.126Z,101572.72
2022-10-12T09:04:41.892Z,101576.63
2022-10-12T09:07:14.777Z,101561.94
2022-10-12T09:10:06.285Z,101563.94
2022-10-12T09:13:10.460Z,101576.59
2022-10-12T09:16:05.804Z,101576.03
2022-10-12T09:18:41.809Z,101579.91
2022-10-12T09:21:16.867Z,101573.16
2022-10-12T09:23:46.725Z,101571.66
2022-10-12T09:26:13.307Z,101564.00
2022-10-12T09:28:44.115Z,101569.53
2022-10-12T09:31:10.733Z,101572.41
2022-10-12T09:33:46.066Z,101570.84
2022-10-12T09:36:19.538Z,101572.84
2022-10-12T09:38:47.529Z,101559.81
2022-10-12T09:41:22.845Z,101560.19
2022-10-12T09:43:56.086Z,101559.59
2022-10-12T09:46:55.831Z,101561.69
2022-10-12T09:49:22.377Z,101554.94
2022-10-12T09:51:59.836Z,101553.50
2022-10-12T09:54:27.970Z,101560.75
2022-10-12T09:56:55.302Z,101559.19
2022-10-12T09:59:32.343Z,101551.38
2022-10-12T10:02:09.645Z,101549.94
2022-10-12T10:04:37.842Z,101546.56
2022-10-12T10:07:30.778Z,101548.47
2022-10-12T10:10:14.423Z,101548.66
2022-10-12T10:12:52.114Z,101541.81
2022-10-12T10:15:35.620Z,101546.41
2022-10-12T10:18:05.958Z,101537.78
2022-10-12T10:20:36.600Z,101538.84
2022-10-12T10:23:05.232Z,101527.53
2022-10-12T10:25:33.255Z,101526.78
2022-10-12T10:28:21.259Z,101532.22
2022-10-12T10:31:21.916Z,101527.91
2022-10-12T10:34:11.282Z,101512.13
2022-10-12T10:36:43.965Z,101516.69
2022-10-12T10:39:21.522Z,101513.22
2022-10-12T10:41:48.475Z,101516.88
2022-10-12T10:44:33.563Z,101507.22
2022-10-12T10:47:04.790Z,101511.75
2022-10-12T10:49:55.586Z,101515.38
2022-10-12T10:52:23.796Z,101509.25
2022-10-12T10:55:14.788Z,101506.63
2022-10-12T10:57:50.329Z,101510.41
2022-10-12T11:00:37.819Z,101514.09
2022-10-12T11:03:23.739Z,101502.66
2022-10-12T11:06:05.619Z,101510.75
2022-10-12T11:08:36.844Z,101496.75
2022-10-12T11:11:15.147Z,101505.69
2022-10-12T11:13:47.766Z,101492.41
2022-10-12T11:16:28.053Z,101490.69
2022-10-12T11:18:57.824Z,101482.75
2022-10-12T11:21:45.847Z,101473.97
2022-10-12T11:24:17.381Z,101473.13
2022-10-12T11:26:56.947Z,101478.47
2022-10-12T11:29:23.944Z,101471.44
2022-10-12T11:32:00.609Z,101466.22
2022-10-12T11:34:31.564Z,101463.56
2022-10-12T11:39:49.784Z,101466.38
2022-10-12T11:42:28.591Z,101461.97
2022-10-12T11:44:55.200Z,101461.16
2022-10-12T11:47:47.101Z,101456.78
2022-10-12T11:50:28.587Z,101460.41
2022-10-12T11:52:57.828Z,101456.88
2022-10-12T11:55:41.117Z,101455.13
2022-10-12T11:58:24.382Z,101455.16
2022-10-12T12:01:29.470Z,101449.84
2022-10-12T12:04:39.807Z,101448.09
2022-10-12T12:07:06.500Z,101449.94
2022-10-12T12:09:39.830Z,101444.63
2022-10-12T12:12:16.126Z,101441.09
2022-10-12T12:14:54.943Z,101434.00
2022-10-12T12:17:26.915Z,101429.59
2022-10-12T12:20:00.037Z,101433.19
2022-10-12T12:22:54.566Z,101427.91
2022-10-12T12:25:32.808Z,101415.50
2022-10-12T12:28:21.813Z,101415.50
2022-10-12T12:30:59.504Z,101405.81
2022-10-12T12:33:32.258Z,101406.72
2022-10-12T12:36:07.856Z,101408.56
2022-10-12T12:38:40.120Z,101416.63
2022-10-12T12:41:12.223Z,101414.00
2022-10-12T12:43:56.157Z,101406.09
2022-10-12T12:46:25.011Z,101396.38
2022-10-12T12:48:51.444Z,101401.72
2022-10-12T12:51:24.816Z,101397.28
2022-10-12T12:54:00.054Z,101388.47
2022-10-12T12:56:29.319Z,101382.31
2022-10-12T12:59:23.918Z,101389.44
2022-10-12T13:01:53.182Z,101385.94
2022-10-12T13:04:54.437Z,101377.13
2022-10-12T13:07:45.274Z,101373.63
2022-10-12T13:10:37.459Z,101372.78
2022-10-12T13:13:15.889Z,101376.28
2022-10-12T13:15:55.111Z,101370.06
2022-10-12T13:18:46.417Z,101369.16
2022-10-12T13:21:21.722Z,101362.03
2022-10-12T13:23:51.525Z,101368.25
2022-10-12T13:26:24.459Z,101368.22
2022-10-12T13:28:52.643Z,101363.78
2022-10-12T13:31:31.934Z,101362.00
2022-10-12T13:34:42.538Z,101362.88
2022-10-12T13:37:14.940Z,101356.66
2022-10-12T13:39:44.782Z,101351.34
2022-10-12T13:42:26.542Z,101348.66
2022-10-12T13:44:53.873Z,101353.09
2022-10-12T13:47:32.756Z,101343.34
2022-10-12T13:50:00.097Z,101338.00
2022-10-12T13:52:32.928Z,101340.66
2022-10-12T13:55:01.068Z,101339.78
2022-10-12T13:57:39.088Z,101338.00
2022-10-12T14:00:25.044Z,101333.53
2022-10-12T14:03:00.497Z,101339.75
2022-10-12T14:05:30.053Z,101330.88
2022-10-12T14:08:02.453Z,101329.09
2022-10-12T14:10:32.908Z,101322.88
2022-10-12T14:13:02.082Z,101319.34
2022-10-12T14:15:33.860Z,101318.47
2022-10-12T14:18:00.344Z,101313.13
2022-10-12T14:20:37.365Z,101316.63
2022-10-12T14:23:13.123Z,101303.34
2022-10-12T14:25:55.070Z,101308.66
2022-10-12T14:28:30.955Z,101307.78
2022-10-12T14:30:57.607Z,101305.13
2022-10-12T14:33:26.712Z,101302.41
2022-10-12T14:36:25.851Z,101296.22
2022-10-12T14:38:53.225Z,101298.00
2022-10-12T14:41:28.697Z,101292.66
2022-10-12T14:44:14.272Z,101285.50
2022-10-12T14:46:46.375Z,101287.25
2022-10-12T14:49:32.662Z,101297.00
2022-10-12T14:51:59.978Z,101288.09
2022-10-12T14:54:26.548Z,101279.16
2022-10-12T14:56:53.177Z,101283.53
2022-10-12T14:59:19.753Z,101285.28
2022-10-12T15:01:50.927Z,101286.09
2022-10-12T15:04:18.399Z,101285.16
2022-10-12T15:06:50.488Z,101293.97
2022-10-12T15:09:17.579Z,101294.81
2022-10-12T15:11:44.152Z,101299.22
2022-10-12T15:14:11.683Z,101299.25
2022-10-12T15:16:39.000Z,101285.94
2022-10-12T15:19:05.584Z,101280.63
2022-10-12T15:21:32.149Z,101277.03
2022-10-12T15:23:58.727Z,101274.34
2022-10-12T15:26:25.349Z,101271.63
2022-10-12T15:28:51.983Z,101264.47
2022-10-12T15:31:19.189Z,101268.00
2022-10-12T15:33:46.009Z,101267.94
2022-10-12T15:36:12.704Z,101263.47
2022-10-12T15:38:39.870Z,101261.69
2022-10-12T15:41:13.286Z,101251.91
2022-10-12T15:43:41.995Z,101251.88
2022-10-12T15:46:12.241Z,101248.31
2022-10-12T15:48:40.116Z,101242.09
2022-10-12T15:51:18.312Z,101241.22
2022-10-12T15:53:44.973Z,101230.59
2022-10-12T15:56:14.343Z,101237.69
2022-10-12T15:58:41.206Z,101236.81
2022-10-12T16:01:12.747Z,101229.69
2022-10-12T16:03:39.804Z,101232.34
2022-10-12T16:06:08.227Z,101227.84
2022-10-12T16:08:35.267Z,101229.56
2022-10-12T16:11:12.607Z,101226.84
2022-10-12T16:13:46.849Z,101224.09
2022-10-12T16:16:19.291Z,101238.19
2022-10-12T16:18:45.899Z,101229.25
2022-10-12T16:21:12.946Z,101224.72
2022-10-12T16:23:41.212Z,101217.53
2022-10-12T16:26:11.654Z,101231.63
2022-10-12T16:28:38.392Z,101226.19
2022-10-12T16:31:15.426Z,101218.94
2022-10-12T16:33:42.488Z,101212.63
2022-10-12T16:36:11.523Z,101212.50
2022-10-12T16:38:38.042Z,101213.28
2022-10-12T16:41:09.633Z,101199.88
2022-10-12T16:43:36.190Z,101211.28
2022-10-12T16:46:03.432Z,101215.56
2022-10-12T16:48:30.114Z,101213.69
2022-10-12T16:50:57.129Z,101222.41
2022-10-12T16:53:23.695Z,101216.97
2022-10-12T16:55:50.314Z,101214.19
2022-10-12T16:58:17.027Z,101212.31
2022-10-12T17:00:43.901Z,101215.72
2022-10-12T17:03:14.067Z,101218.25
2022-10-12T17:05:41.978Z,101219.00
2022-10-12T17:08:12.633Z,101218.88
2022-10-12T17:10:44.248Z,101213.47
2022-10-12T17:13:13.462Z,101214.25
2022-10-12T17:15:42.075Z,101222.00
2022-10-12T17:18:11.244Z,101221.88
2022-10-12T17:20:37.968Z,101220.91
2022-10-12T17:23:04.576Z,101216.34
2022-10-12T17:25:31.341Z,101211.81
2022-10-12T17:27:57.921Z,101210.81
2022-10-12T17:30:24.788Z,101214.25
2022-10-12T17:32:51.304Z,101217.66
2022-10-12T17:35:17.998Z,101211.31
2022-10-12T17:37:44.579Z,101212.09
2022-10-12T17:40:11.512Z,101213.75
2022-10-12T17:42:38.173Z,101216.34
2022-10-12T17:45:05.375Z,101210.91
2022-10-12T17:47:32.012Z,101207.31
2022-10-12T17:49:58.949Z,101211.66
2022-10-12T17:52:27.934Z,101213.31
2022-10-12T17:54:54.570Z,101203.50
2022-10-12T17:57:23.961Z,101200.78
2022-10-12T17:59:50.527Z,101205.94
2022-10-12T18:02:17.018Z,101209.38
2022-10-12T18:04:43.516Z,101203.97
2022-10-12T18:07:10.989Z,101202.94
2022-10-12T18:09:37.487Z,101201.09
2022-10-12T18:12:04.023Z,101203.59
2022-10-12T18:14:30.599Z,101207.03
2022-10-12T18:16:58.751Z,101211.34
2022-10-12T18:19:25.300Z,101202.47
2022-10-12T18:21:51.833Z,101188.28
2022-10-12T18:24:18.741Z,101188.13
2022-10-12T18:26:47.124Z,101201.25
2022-10-12T18:29:17.462Z,101187.91
2022-10-12T18:31:45.459Z,101194.84
2022-10-12T18:34:12.140Z,101186.88
2022-10-12T18:36:40.751Z,101185.84
2022-10-12T18:39:07.383Z,101191.91
2022-10-12T18:41:34.111Z,101192.63
2022-10-12T18:44:02.490Z,101198.69
2022-10-12T18:46:33.042Z,101189.72
2022-10-12T18:49:05.015Z,101186.94
2022-10-12T18:51:35.682Z,101188.59
2022-10-12T18:54:03.369Z,101180.56
2022-10-12T18:56:32.086Z,101193.66
2022-10-12T18:58:59.936Z,101186.53
2022-10-12T19:01:28.255Z,101193.38
2022-10-12T19:03:56.224Z,101185.41
2022-10-12T19:06:29.933Z,101198.47
2022-10-12T19:08:57.524Z,101200.13
2022-10-12T19:11:26.266Z,101191.22
2022-10-12T19:13:56.392Z,101192.88
2022-10-12T19:16:23.614Z,101192.78
2022-10-12T19:18:59.339Z,101193.56
2022-10-12T19:21:26.924Z,101186.50
2022-10-12T19:23:54.421Z,101185.50
2022-10-12T19:26:23.927Z,101181.81
2022-10-12T19:28:53.165Z,101182.53
2022-10-12T19:31:23.235Z,101179.84
2022-10-12T19:33:50.294Z,101188.53
2022-10-12T19:36:18.357Z,101184.06
2022-10-12T19:38:48.133Z,101192.72
2022-10-12T19:41:15.077Z,101199.66
2022-10-12T19:43:43.147Z,101196.06
2022-10-12T19:46:11.471Z,101194.19
2022-10-12T19:48:39.172Z,101197.59
2022-10-12T19:51:11.680Z,101192.28
2022-10-12T19:53:39.593Z,101193.09
2022-10-12T19:56:17.268Z,101186.88
2022-10-12T19:58:46.695Z,101190.31
2022-10-12T20:01:15.515Z,101189.34
2022-10-12T20:03:47.473Z,101195.47
2022-10-12T20:06:14.873Z,101192.69
2022-10-12T20:08:43.768Z,101182.06
2022-10-12T20:11:17.843Z,101185.50
2022-10-12T20:13:46.785Z,101187.22
2022-10-12T20:16:13.978Z,101185.38
2022-10-12T20:18:41.855Z,101193.25
2022-10-12T20:21:11.551Z,101187.00
2022-10-12T20:23:40.335Z,101192.22
2022-10-12T20:26:09.640Z,101182.47
2022-10-12T20:28:37.854Z,101182.38
2022-10-12T20:31:05.711Z,101177.00
2022-10-12T20:33:33.539Z,101176.91
2022-10-12T20:36:00.713Z,101174.22
2022-10-12T20:38:27.858Z,101175.03
2022-10-12T20:41:10.201Z,101166.22
2022-10-12T20:43:40.323Z,101167.03
2022-10-12T20:46:10.275Z,101166.97
2022-10-12T20:48:39.683Z,101160.81
2022-10-12T20:51:07.910Z,101162.50
2022-10-12T20:53:35.568Z,101166.00
2022-10-12T20:56:06.578Z,101164.09
2022-10-12T20:58:33.467Z,101165.84
2022-10-12T21:01:11.707Z,101166.63
2022-10-12T21:03:38.816Z,101165.66
2022-10-12T21:06:10.798Z,101156.81
2022-10-12T21:08:37.784Z,101155.88
2022-10-12T21:11:05.407Z,101161.97
2022-10-12T21:13:36.583Z,101158.44
2022-10-12T21:16:05.523Z,101160.19
2022-10-12T21:18:37.601Z,101145.28
2022-10-12T21:21:14.386Z,101150.53
2022-10-12T21:23:42.273Z,101149.63
2022-10-12T21:26:17.496Z,101150.53
2022-10-12T21:28:44.840Z,101154.88
2022-10-12T21:31:12.570Z,101153.16
2022-10-12T21:33:39.702Z,101145.28
2022-10-12T21:36:07.796Z,101152.28
2022-10-12T21:38:35.248Z,101152.38
2022-10-12T21:41:01.770Z,101149.03
2022-10-12T21:43:28.367Z,101147.34
2022-10-12T21:45:55.118Z,101157.03
2022-10-12T21:48:21.765Z,101154.38
2022-10-12T21:50:48.399Z,101154.38
2022-10-12T21:53:15.026Z,101152.56
2022-10-12T21:55:41.685Z,101146.41
2022-10-12T21:58:08.295Z,101139.31
2022-10-12T22:00:34.882Z,101145.47
2022-10-12T22:03:01.772Z,101141.06
2022-10-12T22:05:30.328Z,101142.78
2022-10-12T22:07:57.090Z,101140.16
2022-10-12T22:10:23.719Z,101137.50
2022-10-12T22:12:50.273Z,101135.75
2022-10-12T22:15:17.029Z,101136.59
2022-10-12T22:17:43.619Z,101137.50
2022-10-12T22:20:10.889Z,101132.25
2022-10-12T22:22:41.670Z,101130.59
2022-10-12T22:25:08.383Z,101129.81
2022-10-12T22:27:37.381Z,101122.84
2022-10-12T22:30:11.569Z,101127.34
2022-10-12T22:32:38.080Z,101123.94
2022-10-12T22:35:04.924Z,101118.75
2022-10-12T22:37:31.456Z,101123.25
2022-10-12T22:39:58.194Z,101120.69
2022-10-12T22:42:24.906Z,101122.44
2022-10-12T22:44:51.573Z,101118.13
2022-10-12T22:47:18.182Z,101122.56
2022-10-12T22:49:47.005Z,101109.38
2022-10-12T22:52:14.055Z,101118.25
2022-10-12T22:54:41.081Z,101121.75
2022-10-12T22:57:07.653Z,101117.31
2022-10-12T22:59:34.492Z,101116.41
2022-10-12T23:02:01.042Z,101116.28
2022-10-12T23:04:29.579Z,101112.75
2022-10-12T23:06:56.088Z,101112.69
2022-10-12T23:09:23.587Z,101106.47
2022-10-12T23:11:51.909Z,101103.75
2022-10-12T23:14:18.469Z,101111.56
2022-10-12T23:16:45.001Z,101100.97
2022-10-12T23:19:11.551Z,101106.19
2022-10-12T23:21:38.092Z,101098.19
2022-10-12T23:24:05.224Z,101094.53
2022-10-12T23:26:31.957Z,101096.16
2022-10-12T23:29:03.638Z,101094.28
2022-10-12T23:31:31.014Z,101091.50
2022-10-12T23:34:04.690Z,101100.16
2022-10-12T23:36:34.094Z,101096.50
2022-10-12T23:39:01.842Z,101093.78
2022-10-12T23:41:28.729Z,101098.06
2022-10-12T23:43:55.363Z,101099.75
2022-10-12T23:46:22.334Z,101097.88
2022-10-12T23:48:48.953Z,101097.78
2022-10-12T23:51:15.488Z,101102.09
2022-10-12T23:53:42.750Z,101105.56
2022-10-12T23:56:11.116Z,101101.97
2022-10-12T23:58:37.812Z,101099.28
